Nagpur Sonegaon, India

10:44 PM IST on August 23, 2014 (GMT +0530)
Nagpur | Change Station
CLOSE
Current Station
Airport
Location: Nagpur Sonegaon,
Elevation: 1017 ft
Nearby Weather Stations

Elev 1017 ft 21.09 °N, 79.06 °E | Updated 34 minutes ago

Haze
Haze
81 °F
Feels Like 85 °F
N
4
Wind Variable Wind from South

Today
High -- | Low -- °F
--% Chance of Precip.
Yesterday
High -- | Low -- °F
Precip. -- in
5:54 AM 6:37 PM
Waning Crescent, 3% visible
Pressure 29.80 in
Visibility 3.1 miles
Clouds Scattered Clouds 2000 ft
Mostly Cloudy 10000 ft
Heat Index 85 °F
Dew Point 73 °F
Humidity 79%
Rainfall 0.00 in
Snow Depth Not available.
UV 0 out of 12
Pollen Not available.
Air Quality Not available.
Flu Activity Not available.
METAR VANP 231640Z 18003KT 5000 HZ SCT020 BKN100 27/23 Q1009 NOSIG

More Conditions Fewer Conditions

Pressure 29.80 in
Visibility 3.1 miles
Clouds Scattered Clouds 2000 ft
Mostly Cloudy 10000 ft
Heat Index 85 °F
Dew Point 73 °F
Humidity 79%
Rainfall 0.00 in
Snow Depth Not available.
UV 0 out of 12
Pollen Not available.
Air Quality Not available.
Flu Activity Not available.
METAR VANP 231640Z 18003KT 5000 HZ SCT020 BKN100 27/23 Q1009 NOSIG

More Conditions Fewer Conditions

10-Day Weather Forecast

Almanac

Astronomy

Aug. 23, 2014 Rise Set
Actual Time 5:54 AM IST 6:37 PM IST
Civil Twilight 5:32 AM IST 7:00 PM IST
Nautical Twilight 5:05 AM IST 7:27 PM IST
Astronomical Twilight 4:38 AM IST 7:54 PM IST
Moon 3:52 AM IST 5:01 PM IST
Length of Visible Light 13h 28m
Length of Day
12h 43m
Tomorrow will be 1m 6s shorter.
Waning Crescent, 3% of the Moon is Illuminated
Today
Waning Crescent
Aug 25
New
Sep 2
First Quarter
Sep 8
Full
Sep 15
Last Quarter

Today's Extremes

Country Highs Country Lows

Community

WunderPhotos

Upload Photos

1,746,531 photos uploaded!

WunderBlogs® & News

By Dr. Jeff Masters
Director of Meteorology, Weather Underground
By Kari Strenfel
Meteorologist, Weather Underground
By Christopher C. Burt
Weather Historian, Weather Underground
August 23, 2014
August 23, 2014
August 23, 2014

Nearby

Snow Depth

Not available.

Earthquake Activity

City Distance Mag. Time & Date
No recent earthquake activity has been reported nearby.
Minimum magnitude displayed is 2.5.

Coastal Water Temperatures

Place Temperature
No Stations Reporting

Nearby Weather Stations